Cochran, Texas
Current Conditions -  °F | °C
As of 7:15 PM on Friday 24 Oct 2014 (Local Time) from K11R Reporting Station
Clear Clear  
Wind Chill: 75°   Ceiling: Unl
Heat Index: 75°   Visibility: 10mi
Dew Point: 59°   Wind: 0mph
Humidity: 58%   Direction: NA
Pressure: 30.11"   Gusts: NA
Location:  29.9944°N, 96.2595°W
Report Text: K11R 250015Z AUTO 00000KT 10SM CLR 24/15 A3011 RMK AO2 T02370150
Loading
Personal Weather Stations






























Interactive Weather Map
Tropical Storm Tracking
New forecast layout! Learn more

10-Day Weather Forecast

Advertisements
Track Severe Weather on mobile